createdAt,value
2019-01-11T00:00:58.946Z,13.33
2019-01-11T00:03:29.153Z,9.73
2019-01-11T00:05:58.364Z,10.17
2019-01-11T00:08:26.874Z,9.87
2019-01-11T00:10:55.434Z,12.37
2019-01-11T00:13:24.090Z,9.17
2019-01-11T00:15:52.689Z,12.13
2019-01-11T00:18:21.234Z,10.70
2019-01-11T00:20:49.930Z,9.30
2019-01-11T00:23:18.562Z,9.87
2019-01-11T00:25:47.185Z,9.17
2019-01-11T00:28:15.835Z,9.83
2019-01-11T00:30:44.406Z,9.43
2019-01-11T00:33:12.991Z,7.37
2019-01-11T00:35:41.549Z,7.47
2019-01-11T00:38:10.366Z,8.47
2019-01-11T00:40:39.172Z,8.00
2019-01-11T00:43:07.814Z,7.77
2019-01-11T00:45:36.535Z,7.27
2019-01-11T00:48:05.367Z,10.63
2019-01-11T00:50:33.916Z,7.93
2019-01-11T00:53:02.601Z,7.90
2019-01-11T00:55:31.219Z,8.53
2019-01-11T00:57:59.773Z,9.10
2019-01-11T01:00:28.662Z,6.93
2019-01-11T01:02:57.305Z,7.63
2019-01-11T01:05:26.033Z,8.27
2019-01-11T01:07:54.996Z,7.77
2019-01-11T01:10:24.003Z,8.63
2019-01-11T01:12:53.052Z,10.77
2019-01-11T01:15:21.875Z,8.20
2019-01-11T01:17:50.538Z,8.20
2019-01-11T01:20:19.334Z,8.87
2019-01-11T01:22:47.981Z,9.73
2019-01-11T01:25:16.874Z,10.07
2019-01-11T01:27:45.513Z,9.97
2019-01-11T01:30:20.902Z,9.23
2019-01-11T01:32:49.614Z,8.07
2019-01-11T01:35:18.347Z,7.93
2019-01-11T01:37:47.218Z,7.97
2019-01-11T01:40:17.218Z,7.73
2019-01-11T01:42:45.897Z,7.70
2019-01-11T01:45:18.278Z,8.67
2019-01-11T01:47:47.039Z,7.77
2019-01-11T01:50:15.954Z,7.97
2019-01-11T01:53:03.842Z,9.07
2019-01-11T01:55:32.435Z,8.30
2019-01-11T01:58:01.063Z,10.47
2019-01-11T02:00:29.870Z,9.87
2019-01-11T02:02:58.487Z,10.40
2019-01-11T02:05:27.150Z,8.70
2019-01-11T02:07:55.779Z,9.23
2019-01-11T02:10:24.466Z,9.90
2019-01-11T02:12:53.067Z,10.47
2019-01-11T02:15:21.738Z,11.40
2019-01-11T02:18:11.126Z,9.20
2019-01-11T02:20:40.221Z,10.57
2019-01-11T02:23:08.835Z,8.60
2019-01-11T02:25:37.476Z,14.83
2019-01-11T02:28:06.117Z,9.17
2019-01-11T02:30:34.703Z,9.77
2019-01-11T02:33:03.521Z,10.33
2019-01-11T02:35:32.224Z,10.13
2019-01-11T02:38:00.775Z,9.00
2019-01-11T02:40:29.358Z,10.40
2019-01-11T02:42:58.126Z,10.93
2019-01-11T02:45:26.746Z,9.40
2019-01-11T02:47:55.459Z,12.73
2019-01-11T02:50:24.173Z,12.07
2019-01-11T02:52:52.951Z,10.27
2019-01-11T02:55:21.623Z,10.30
2019-01-11T02:57:50.551Z,9.03
2019-01-11T03:00:20.933Z,8.93
2019-01-11T03:02:49.536Z,8.57
2019-01-11T03:05:18.835Z,9.47
2019-01-11T03:07:47.721Z,9.50
2019-01-11T03:10:18.821Z,11.13
2019-01-11T03:12:47.767Z,10.10
2019-01-11T03:15:17.712Z,9.37
2019-01-11T03:17:46.675Z,9.60
2019-01-11T03:20:17.529Z,10.57
2019-01-11T03:22:46.450Z,9.87
2019-01-11T03:25:16.703Z,8.93
2019-01-11T03:27:45.288Z,7.83
2019-01-11T03:30:18.965Z,13.17
2019-01-11T03:32:47.577Z,11.57
2019-01-11T03:35:17.567Z,9.33
2019-01-11T03:37:47.741Z,8.90
2019-01-11T03:40:19.290Z,9.63
2019-01-11T03:42:48.026Z,10.10
2019-01-11T03:45:19.639Z,9.57
2019-01-11T03:47:48.446Z,10.03
2019-01-11T03:50:19.503Z,11.33
2019-01-11T03:52:48.463Z,10.27
2019-01-11T03:55:18.057Z,11.43
2019-01-11T03:57:46.935Z,10.93
2019-01-11T04:00:22.970Z,10.87
2019-01-11T04:02:52.503Z,10.80
2019-01-11T04:05:21.711Z,11.03
2019-01-11T04:07:50.402Z,10.03
2019-01-11T04:10:21.035Z,11.60
2019-01-11T04:12:49.677Z,10.40
2019-01-11T04:15:20.770Z,11.20
2019-01-11T04:18:08.778Z,13.00
2019-01-11T04:20:37.475Z,11.40
2019-01-11T04:23:06.278Z,10.43
2019-01-11T04:25:36.451Z,10.60
2019-01-11T04:28:05.756Z,13.43
2019-01-11T04:30:34.373Z,10.20
2019-01-11T04:33:02.990Z,10.17
2019-01-11T04:35:31.611Z,11.40
2019-01-11T04:38:00.398Z,10.63
2019-01-11T04:40:34.129Z,9.07
2019-01-11T04:42:59.363Z,10.13
2019-01-11T04:45:27.906Z,9.90
2019-01-11T04:47:56.578Z,10.97
2019-01-11T04:50:25.126Z,10.43
2019-01-11T04:52:53.749Z,11.57
2019-01-11T04:55:22.261Z,9.97
2019-01-11T04:58:10.185Z,11.00
2019-01-11T05:00:38.860Z,14.10
2019-01-11T05:03:07.447Z,13.50
2019-01-11T05:05:36.189Z,10.83
2019-01-11T05:08:05.037Z,13.97
2019-01-11T05:10:33.603Z,11.77
2019-01-11T05:13:03.941Z,11.03
2019-01-11T05:15:32.422Z,11.70
2019-01-11T05:18:00.973Z,11.27
2019-01-11T05:20:29.834Z,11.93
2019-01-11T05:22:58.482Z,12.27
2019-01-11T05:25:27.050Z,11.33
2019-01-11T05:27:55.594Z,11.83
2019-01-11T05:30:24.183Z,10.83
2019-01-11T05:32:52.766Z,11.83
2019-01-11T05:35:21.399Z,14.97
2019-01-11T05:37:49.956Z,10.73
2019-01-11T05:40:18.999Z,12.07
2019-01-11T05:42:47.796Z,12.50
2019-01-11T05:45:18.342Z,14.87
2019-01-11T05:47:47.030Z,11.17
2019-01-11T05:50:23.431Z,18.57
2019-01-11T05:52:47.477Z,12.03
2019-01-11T05:55:20.769Z,10.67
2019-01-11T05:57:56.982Z,12.37
2019-01-11T06:00:25.650Z,14.43
2019-01-11T06:02:54.643Z,10.57
2019-01-11T06:05:23.229Z,11.63
2019-01-11T06:07:52.887Z,11.23
2019-01-11T06:10:21.502Z,10.57
2019-01-11T06:12:50.160Z,12.37
2019-01-11T06:15:18.738Z,12.77
2019-01-11T06:17:48.350Z,10.07
2019-01-11T06:20:17.833Z,11.17
2019-01-11T06:22:46.502Z,12.33
2019-01-11T06:25:15.158Z,11.67
2019-01-11T06:27:43.842Z,11.50
2019-01-11T06:30:14.365Z,10.13
2019-01-11T06:32:43.051Z,10.13
2019-01-11T06:35:11.717Z,10.80
2019-01-11T06:37:40.450Z,10.50
2019-01-11T06:40:11.287Z,12.17
2019-01-11T06:42:40.073Z,11.33
2019-01-11T06:45:10.811Z,11.93
2019-01-11T06:47:39.904Z,12.27
2019-01-11T06:50:16.566Z,11.60
2019-01-11T06:52:45.202Z,10.53
2019-01-11T06:55:14.345Z,11.60
2019-01-11T06:57:44.398Z,11.53
2019-01-11T07:00:19.878Z,10.70
2019-01-11T07:02:53.644Z,11.00
2019-01-11T07:05:22.302Z,10.87
2019-01-11T07:07:50.871Z,11.60
2019-01-11T07:10:22.038Z,13.73
2019-01-11T07:12:50.874Z,11.43
2019-01-11T07:15:19.612Z,11.93
2019-01-11T07:17:48.259Z,12.20
2019-01-11T07:20:17.054Z,11.23
2019-01-11T07:22:45.951Z,13.70
2019-01-11T07:25:16.817Z,10.97
2019-01-11T07:27:47.138Z,11.60
2019-01-11T07:30:16.642Z,11.20
2019-01-11T07:32:45.794Z,12.67
2019-01-11T07:35:15.182Z,12.00
2019-01-11T07:37:45.505Z,9.90
2019-01-11T07:40:14.314Z,10.37
2019-01-11T07:42:42.916Z,12.13
2019-01-11T07:45:13.575Z,11.47
2019-01-11T07:47:42.541Z,13.03
2019-01-11T07:50:11.393Z,16.37
2019-01-11T07:52:40.252Z,10.40
2019-01-11T07:55:14.030Z,12.80
2019-01-11T07:57:46.453Z,12.07
2019-01-11T08:00:15.504Z,14.70
2019-01-11T08:02:44.362Z,10.43
2019-01-11T08:05:14.520Z,11.63
2019-01-11T08:07:43.346Z,12.23
2019-01-11T08:10:14.475Z,12.10
2019-01-11T08:12:43.094Z,11.40
2019-01-11T08:15:14.615Z,14.90
2019-01-11T08:17:43.187Z,12.77
2019-01-11T08:20:11.963Z,14.23
2019-01-11T08:22:41.819Z,15.00
2019-01-11T08:25:12.374Z,16.13
2019-01-11T08:27:41.293Z,16.10
2019-01-11T08:30:16.683Z,15.33
2019-01-11T08:32:45.628Z,14.33
2019-01-11T08:35:15.155Z,13.90
2019-01-11T08:37:43.961Z,13.30
2019-01-11T08:40:13.498Z,12.80
2019-01-11T08:42:42.231Z,15.77
2019-01-11T08:45:14.112Z,13.00
2019-01-11T08:47:43.193Z,16.07
2019-01-11T08:50:17.799Z,12.83
2019-01-11T08:52:46.590Z,15.63
2019-01-11T08:55:15.374Z,13.00
2019-01-11T08:57:43.956Z,14.93
2019-01-11T09:00:16.674Z,12.13
2019-01-11T09:02:45.222Z,12.40
2019-01-11T09:05:14.533Z,14.07
2019-01-11T09:07:43.466Z,17.20
2019-01-11T09:10:22.650Z,15.67
2019-01-11T09:12:47.308Z,20.20
2019-01-11T09:15:15.958Z,14.47
2019-01-11T09:18:04.250Z,14.33
2019-01-11T09:20:32.857Z,13.77
2019-01-11T09:23:01.603Z,12.93
2019-01-11T09:25:30.525Z,16.33
2019-01-11T09:28:02.061Z,13.00
2019-01-11T09:30:30.633Z,13.53
2019-01-11T09:32:59.526Z,14.70
2019-01-11T09:35:28.460Z,19.60
2019-01-11T09:37:58.846Z,15.37
2019-01-11T09:40:27.700Z,13.30
2019-01-11T09:42:56.314Z,14.67
2019-01-11T09:45:25.367Z,16.10
2019-01-11T09:47:53.970Z,15.07
2019-01-11T09:50:22.818Z,16.87
2019-01-11T09:52:51.889Z,15.53
2019-01-11T09:55:20.826Z,17.43
2019-01-11T09:57:49.392Z,13.70
2019-01-11T10:00:22.186Z,13.80
2019-01-11T10:02:52.476Z,14.23
2019-01-11T10:05:21.116Z,13.77
2019-01-11T10:07:49.738Z,14.20
2019-01-11T10:10:19.798Z,17.57
2019-01-11T10:12:49.114Z,14.87
2019-01-11T10:15:17.926Z,14.63
2019-01-11T10:17:48.554Z,16.10
2019-01-11T10:20:17.518Z,15.80
2019-01-11T10:22:46.434Z,16.07
2019-01-11T10:25:15.120Z,15.63
2019-01-11T10:27:43.759Z,16.77
2019-01-11T10:30:22.347Z,14.43
2019-01-11T10:32:51.198Z,15.93
2019-01-11T10:35:20.103Z,13.83
2019-01-11T10:37:49.034Z,16.80
2019-01-11T10:40:18.333Z,14.63
2019-01-11T10:42:47.230Z,16.53
2019-01-11T10:45:19.598Z,14.23
2019-01-11T10:47:48.356Z,13.93
2019-01-11T10:50:18.299Z,14.73
2019-01-11T10:52:47.214Z,13.40
2019-01-11T10:55:20.766Z,15.13
2019-01-11T10:57:49.498Z,14.87
2019-01-11T11:00:23.190Z,13.37
2019-01-11T11:02:52.939Z,14.20
2019-01-11T11:05:22.980Z,18.77
2019-01-11T11:07:52.182Z,19.70
2019-01-11T11:10:21.170Z,13.23
2019-01-11T11:12:50.267Z,14.10
2019-01-11T11:15:19.517Z,15.70
2019-01-11T11:17:50.703Z,13.53
2019-01-11T11:20:38.499Z,16.50
2019-01-11T11:23:07.650Z,15.57
2019-01-11T11:25:36.242Z,18.03
2019-01-11T11:28:04.945Z,14.77
2019-01-11T11:30:33.786Z,14.73
2019-01-11T11:33:02.789Z,14.60
2019-01-11T11:35:31.486Z,14.37
2019-01-11T11:38:01.402Z,13.20
2019-01-11T11:40:30.633Z,16.23
2019-01-11T11:42:59.374Z,14.17
2019-01-11T11:45:48.816Z,13.80
2019-01-11T11:48:17.602Z,16.23
2019-01-11T11:50:46.389Z,14.13
2019-01-11T11:53:14.854Z,14.13
2019-01-11T11:55:44.131Z,12.23
2019-01-11T11:58:13.022Z,14.07
2019-01-11T12:01:01.080Z,13.93
2019-01-11T12:03:32.696Z,14.43
2019-01-11T12:06:03.184Z,13.70
2019-01-11T12:08:32.390Z,13.70
2019-01-11T12:11:01.240Z,12.60
2019-01-11T12:13:30.090Z,12.27
2019-01-11T12:15:58.715Z,14.63
2019-01-11T12:18:27.506Z,14.97
2019-01-11T12:20:56.293Z,12.87
2019-01-11T12:23:24.919Z,14.13
2019-01-11T12:25:53.639Z,15.70
2019-01-11T12:28:22.394Z,14.80
2019-01-11T12:30:51.039Z,14.10
2019-01-11T12:33:19.666Z,14.70
2019-01-11T12:35:48.388Z,17.90
2019-01-11T12:38:17.232Z,14.63
2019-01-11T12:40:45.837Z,16.10
2019-01-11T12:43:14.528Z,15.87
2019-01-11T12:45:43.097Z,11.07
2019-01-11T12:48:11.851Z,14.43
2019-01-11T12:50:40.509Z,16.40
2019-01-11T12:53:09.120Z,17.67
2019-01-11T12:55:37.679Z,12.93
2019-01-11T12:58:06.278Z,14.93
2019-01-11T13:00:35.530Z,13.57
2019-01-11T13:03:04.522Z,13.83
2019-01-11T13:05:33.268Z,18.73
2019-01-11T13:08:02.327Z,16.37
2019-01-11T13:10:31.010Z,12.83
2019-01-11T13:12:59.766Z,15.20
2019-01-11T13:15:28.422Z,14.47
2019-01-11T13:17:57.448Z,14.93
2019-01-11T13:20:45.485Z,15.80
2019-01-11T13:23:14.214Z,15.20
2019-01-11T13:25:42.867Z,15.77
2019-01-11T13:28:11.666Z,17.50
2019-01-11T13:30:40.254Z,16.03
2019-01-11T13:33:09.095Z,15.90
2019-01-11T13:35:38.015Z,15.83
2019-01-11T13:38:06.622Z,17.07
2019-01-11T13:40:35.173Z,15.80
2019-01-11T13:43:04.119Z,19.03
2019-01-11T13:45:33.110Z,16.23
2019-01-11T13:48:01.730Z,14.63
2019-01-11T13:50:35.471Z,15.90
2019-01-11T13:53:05.694Z,14.63
2019-01-11T13:55:34.773Z,11.63
2019-01-11T13:58:03.542Z,14.87
2019-01-11T14:00:32.811Z,13.63
2019-01-11T14:03:01.673Z,12.23
2019-01-11T14:05:30.351Z,12.80
2019-01-11T14:07:59.150Z,10.83
2019-01-11T14:10:28.687Z,13.53
2019-01-11T14:12:57.404Z,11.83
2019-01-11T14:15:26.040Z,13.10
2019-01-11T14:17:55.688Z,10.33
2019-01-11T14:20:24.394Z,11.37
2019-01-11T14:22:53.215Z,9.77
2019-01-11T14:25:21.934Z,10.97
2019-01-11T14:27:50.557Z,8.97
2019-01-11T14:30:20.490Z,10.50
2019-01-11T14:32:49.615Z,10.97
2019-01-11T14:35:18.300Z,11.23
2019-01-11T14:37:47.066Z,9.80
2019-01-11T14:40:16.983Z,11.83
2019-01-11T14:42:45.999Z,12.67
2019-01-11T14:45:16.924Z,13.53
2019-01-11T14:47:46.029Z,13.97
2019-01-11T14:50:19.499Z,11.07
2019-01-11T14:52:48.254Z,17.60
2019-01-11T14:55:16.843Z,11.93
2019-01-11T14:57:45.682Z,15.77
2019-01-11T15:00:17.619Z,12.33
2019-01-11T15:02:46.447Z,12.40
2019-01-11T15:05:16.277Z,12.43
2019-01-11T15:07:46.110Z,11.27
2019-01-11T15:10:16.456Z,11.67
2019-01-11T15:12:46.459Z,11.07
2019-01-11T15:15:16.164Z,12.53
2019-01-11T15:17:44.880Z,13.97
2019-01-11T15:20:15.546Z,11.27
2019-01-11T15:22:44.454Z,12.60
2019-01-11T15:25:13.583Z,13.80
2019-01-11T15:27:42.191Z,15.13
2019-01-11T15:30:14.198Z,11.60
2019-01-11T15:32:43.454Z,11.73
2019-01-11T15:35:12.110Z,10.50
2019-01-11T15:37:40.771Z,11.10
2019-01-11T15:40:15.758Z,11.67
2019-01-11T15:42:44.631Z,12.23
2019-01-11T15:45:13.650Z,12.20
2019-01-11T15:47:42.798Z,9.87
2019-01-11T15:50:40.081Z,9.50
2019-01-11T15:53:29.783Z,10.70
2019-01-11T15:55:59.572Z,13.70
2019-01-11T15:58:28.367Z,10.97
2019-01-11T16:00:56.947Z,12.17
2019-01-11T16:03:25.628Z,15.13
2019-01-11T16:06:22.884Z,12.07
2019-01-11T16:09:12.805Z,11.80
2019-01-11T16:12:02.668Z,12.10
2019-01-11T16:14:37.323Z,11.90
2019-01-11T16:17:12.008Z,12.93
2019-01-11T16:19:40.798Z,13.63
2019-01-11T16:22:30.273Z,14.00
2019-01-11T16:24:58.893Z,16.27
2019-01-11T16:27:27.547Z,15.30
2019-01-11T16:29:56.170Z,16.93
2019-01-11T16:32:24.767Z,15.47
2019-01-11T16:34:59.100Z,13.93
2019-01-11T16:37:27.683Z,13.37
2019-01-11T16:39:56.519Z,15.67
2019-01-11T16:42:25.195Z,13.20
2019-01-11T16:44:53.710Z,15.80
2019-01-11T16:47:22.486Z,17.30
2019-01-11T16:49:51.041Z,14.80
2019-01-11T16:52:19.656Z,18.30
2019-01-11T16:54:48.287Z,12.77
2019-01-11T16:57:16.908Z,15.83
2019-01-11T16:59:45.786Z,14.60
2019-01-11T17:02:14.466Z,12.43
2019-01-11T17:04:43.036Z,11.97
2019-01-11T17:07:11.799Z,13.20
2019-01-11T17:09:40.381Z,15.80
2019-01-11T17:12:09.344Z,16.07
2019-01-11T17:14:38.005Z,15.43
2019-01-11T17:17:06.722Z,17.67
2019-01-11T17:19:35.327Z,12.30
2019-01-11T17:22:04.166Z,14.40
2019-01-11T17:24:32.964Z,13.07
2019-01-11T17:27:01.635Z,14.20
2019-01-11T17:29:30.230Z,13.67
2019-01-11T17:31:58.858Z,11.70
2019-01-11T17:34:27.416Z,13.43
2019-01-11T17:36:57.667Z,13.90
2019-01-11T17:39:26.249Z,13.73
2019-01-11T17:41:54.931Z,11.57
2019-01-11T17:44:25.241Z,12.03
2019-01-11T17:46:53.996Z,11.37
2019-01-11T17:49:22.791Z,11.83
2019-01-11T17:51:51.423Z,10.10
2019-01-11T17:54:19.938Z,11.87
2019-01-11T17:56:48.674Z,10.07
2019-01-11T17:59:17.457Z,11.27
2019-01-11T18:02:05.439Z,11.77
2019-01-11T18:04:34.320Z,12.63
2019-01-11T18:07:02.863Z,14.13
2019-01-11T18:09:31.625Z,14.73
2019-01-11T18:12:00.208Z,12.60
2019-01-11T18:14:28.753Z,11.03
2019-01-11T18:16:57.335Z,14.80
2019-01-11T18:19:26.104Z,11.17
2019-01-11T18:21:54.719Z,17.90
2019-01-11T18:24:23.479Z,13.17
2019-01-11T18:26:53.279Z,13.53
2019-01-11T18:29:22.061Z,11.13
2019-01-11T18:31:50.631Z,11.67
2019-01-11T18:34:19.234Z,11.30
2019-01-11T18:36:47.865Z,13.57
2019-01-11T18:39:16.506Z,14.17
2019-01-11T18:41:45.192Z,14.37
2019-01-11T18:44:13.852Z,10.07
2019-01-11T18:46:42.434Z,12.10
2019-01-11T18:49:13.527Z,13.03
2019-01-11T18:51:42.509Z,12.03
2019-01-11T18:54:11.102Z,14.13
2019-01-11T18:56:39.846Z,13.20
2019-01-11T18:59:08.655Z,11.20
2019-01-11T19:01:37.337Z,10.90
2019-01-11T19:04:06.437Z,11.87
2019-01-11T19:06:35.030Z,12.20
2019-01-11T19:09:05.138Z,10.77
2019-01-11T19:11:33.860Z,12.10
2019-01-11T19:14:02.462Z,13.30
2019-01-11T19:16:31.146Z,14.43
2019-01-11T19:18:59.814Z,13.80
2019-01-11T19:21:28.397Z,11.07
2019-01-11T19:23:56.984Z,9.87
2019-01-11T19:26:25.739Z,9.67
2019-01-11T19:28:55.082Z,14.77
2019-01-11T19:31:23.727Z,11.73
2019-01-11T19:33:52.316Z,11.23
2019-01-11T19:36:20.955Z,13.27
2019-01-11T19:38:51.125Z,9.77
2019-01-11T19:41:20.171Z,11.00
2019-01-11T19:43:48.674Z,12.33
2019-01-11T19:46:17.360Z,12.23
2019-01-11T19:48:46.051Z,9.27
2019-01-11T19:51:14.762Z,9.57
2019-01-11T19:53:43.451Z,9.80
2019-01-11T19:56:12.086Z,10.40
2019-01-11T19:58:40.764Z,10.63
2019-01-11T20:01:09.953Z,10.97
2019-01-11T20:03:38.636Z,27.90
2019-01-11T20:06:07.336Z,11.43
2019-01-11T20:08:36.048Z,10.80
2019-01-11T20:11:05.287Z,10.30
2019-01-11T20:13:33.927Z,9.63
2019-01-11T20:16:02.697Z,9.37
2019-01-11T20:18:31.345Z,10.57
2019-01-11T20:21:00.393Z,9.47
2019-01-11T20:23:34.880Z,9.50
2019-01-11T20:25:59.251Z,9.90
2019-01-11T20:28:27.910Z,11.20
2019-01-11T20:30:57.235Z,9.83
2019-01-11T20:33:25.943Z,9.80
2019-01-11T20:35:54.869Z,9.80
2019-01-11T20:38:23.429Z,10.27
2019-01-11T20:40:52.341Z,9.63
2019-01-11T20:43:20.976Z,9.60
2019-01-11T20:45:49.634Z,9.57
2019-01-11T20:48:18.417Z,12.73
2019-01-11T20:50:47.054Z,12.87
2019-01-11T20:53:15.759Z,13.03
2019-01-11T20:55:44.362Z,11.30
2019-01-11T20:58:12.928Z,9.00
2019-01-11T21:00:41.991Z,10.60
2019-01-11T21:03:10.970Z,9.90
2019-01-11T21:05:40.009Z,10.50
2019-01-11T21:08:08.729Z,8.67
2019-01-11T21:10:37.483Z,8.40
2019-01-11T21:13:07.240Z,10.17
2019-01-11T21:15:36.568Z,9.60
2019-01-11T21:18:05.695Z,8.70
2019-01-11T21:20:35.960Z,9.00
2019-01-11T21:23:04.614Z,11.33
2019-01-11T21:25:33.266Z,12.07
2019-01-11T21:28:21.188Z,10.03
2019-01-11T21:30:49.894Z,9.23
2019-01-11T21:33:18.643Z,10.03
2019-01-11T21:35:47.220Z,8.90
2019-01-11T21:38:15.882Z,13.43
2019-01-11T21:40:44.649Z,10.30
2019-01-11T21:43:14.841Z,12.00
2019-01-11T21:45:43.326Z,12.50
2019-01-11T21:48:11.906Z,10.30
2019-01-11T21:50:40.650Z,10.30
2019-01-11T21:53:09.242Z,10.93
2019-01-11T21:55:37.888Z,12.80
2019-01-11T21:58:06.526Z,12.70
2019-01-11T22:00:37.796Z,13.73
2019-01-11T22:03:07.872Z,12.13
2019-01-11T22:05:36.598Z,12.33
2019-01-11T22:08:05.511Z,12.80
2019-01-11T22:10:34.234Z,11.23
2019-01-11T22:13:02.846Z,12.40
2019-01-11T22:15:31.604Z,11.80
2019-01-11T22:18:00.347Z,11.90
2019-01-11T22:20:29.086Z,11.80
2019-01-11T22:22:57.734Z,12.47
2019-01-11T22:25:28.044Z,12.03
2019-01-11T22:27:56.627Z,10.33
2019-01-11T22:30:30.277Z,16.37
2019-01-11T22:32:56.366Z,10.70
2019-01-11T22:35:24.919Z,10.87
2019-01-11T22:37:53.601Z,12.50
2019-01-11T22:40:23.791Z,10.07
2019-01-11T22:42:56.152Z,13.37
2019-01-11T22:45:24.907Z,13.43
2019-01-11T22:47:53.674Z,11.87
2019-01-11T22:50:22.378Z,12.97
2019-01-11T22:52:52.394Z,11.37
2019-01-11T22:55:21.251Z,13.03
2019-01-11T22:57:49.997Z,13.00
2019-01-11T23:00:46.011Z,13.40
2019-01-11T23:03:17.741Z,10.47
2019-01-11T23:05:47.715Z,10.80
2019-01-11T23:08:18.207Z,10.77
2019-01-11T23:11:15.551Z,12.03
2019-01-11T23:13:44.232Z,10.03
2019-01-11T23:16:15.910Z,10.07
2019-01-11T23:18:45.244Z,11.20
2019-01-11T23:21:13.826Z,10.73
2019-01-11T23:23:42.408Z,9.90
2019-01-11T23:26:11.063Z,9.37
2019-01-11T23:28:39.751Z,9.73
2019-01-11T23:31:09.104Z,13.50
2019-01-11T23:33:37.703Z,10.90
2019-01-11T23:36:06.254Z,9.97
2019-01-11T23:38:34.859Z,9.17
2019-01-11T23:41:03.395Z,8.30
2019-01-11T23:43:32.039Z,9.77
2019-01-11T23:46:00.611Z,9.00
2019-01-11T23:48:29.205Z,8.73
2019-01-11T23:50:57.988Z,10.30
2019-01-11T23:53:26.549Z,10.53
2019-01-11T23:55:55.255Z,8.47
2019-01-11T23:58:23.848Z,9.67
